sensor_id;sensor_type;location;lat;lon;timestamp;temperature;humidity
14349;DHT22;7258;50.376;8.742;2022-12-16T00:01:03;-6.30;99.90
14349;DHT22;7258;50.376;8.742;2022-12-16T00:03:06;-6.30;99.90
14349;DHT22;7258;50.376;8.742;2022-12-16T00:05:10;-6.30;99.90
14349;DHT22;7258;50.376;8.742;2022-12-16T00:07:13;-6.30;99.90
14349;DHT22;7258;50.376;8.742;2022-12-16T00:09:16;-6.30;99.90
14349;DHT22;7258;50.376;8.742;2022-12-16T00:11:19;-6.30;99.90
14349;DHT22;7258;50.376;8.742;2022-12-16T00:13:22;-6.30;99.90
14349;DHT22;7258;50.376;8.742;2022-12-16T00:15:24;-6.30;99.90
14349;DHT22;7258;50.376;8.742;2022-12-16T00:17:27;-6.30;99.90
14349;DHT22;7258;50.376;8.742;2022-12-16T00:19:30;-6.30;99.90
14349;DHT22;7258;50.376;8.742;2022-12-16T00:21:34;-6.30;99.90
14349;DHT22;7258;50.376;8.742;2022-12-16T00:23:37;-6.30;99.90
14349;DHT22;7258;50.376;8.742;2022-12-16T00:25:42;-6.30;99.90
14349;DHT22;7258;50.376;8.742;2022-12-16T00:27:45;-6.30;99.90
14349;DHT22;7258;50.376;8.742;2022-12-16T00:29:48;-6.30;99.90
14349;DHT22;7258;50.376;8.742;2022-12-16T00:31:51;-6.30;99.90
14349;DHT22;7258;50.376;8.742;2022-12-16T00:33:55;-6.20;99.90
14349;DHT22;7258;50.376;8.742;2022-12-16T00:36:01;-6.20;99.90
14349;DHT22;7258;50.376;8.742;2022-12-16T00:38:05;-6.20;99.90
14349;DHT22;7258;50.376;8.742;2022-12-16T00:40:09;-6.20;99.90
14349;DHT22;7258;50.376;8.742;2022-12-16T00:42:12;-6.30;99.90
14349;DHT22;7258;50.376;8.742;2022-12-16T00:44:15;-6.30;99.90
14349;DHT22;7258;50.376;8.742;2022-12-16T00:46:18;-6.30;99.90
14349;DHT22;7258;50.376;8.742;2022-12-16T00:48:21;-6.30;99.90
14349;DHT22;7258;50.376;8.742;2022-12-16T00:50:24;-6.30;99.90
14349;DHT22;7258;50.376;8.742;2022-12-16T00:52:27;-6.30;99.90
14349;DHT22;7258;50.376;8.742;2022-12-16T00:54:31;-6.30;99.90
14349;DHT22;7258;50.376;8.742;2022-12-16T00:56:34;-6.30;99.90
14349;DHT22;7258;50.376;8.742;2022-12-16T00:58:37;-6.30;99.90
14349;DHT22;7258;50.376;8.742;2022-12-16T01:00:40;-6.20;99.90
14349;DHT22;7258;50.376;8.742;2022-12-16T01:02:45;-6.20;99.90
14349;DHT22;7258;50.376;8.742;2022-12-16T01:04:48;-6.20;99.90
14349;DHT22;7258;50.376;8.742;2022-12-16T01:06:51;-6.20;99.90
14349;DHT22;7258;50.376;8.742;2022-12-16T01:08:56;-6.20;99.90
14349;DHT22;7258;50.376;8.742;2022-12-16T01:11:00;-6.10;99.90
14349;DHT22;7258;50.376;8.742;2022-12-16T01:13:03;-6.20;99.90
14349;DHT22;7258;50.376;8.742;2022-12-16T01:15:07;-6.10;99.90
14349;DHT22;7258;50.376;8.742;2022-12-16T01:17:10;-6.10;99.90
14349;DHT22;7258;50.376;8.742;2022-12-16T01:19:13;-6.00;99.90
14349;DHT22;7258;50.376;8.742;2022-12-16T01:21:16;-6.00;99.90
14349;DHT22;7258;50.376;8.742;2022-12-16T01:23:18;-6.00;99.90
14349;DHT22;7258;50.376;8.742;2022-12-16T01:25:21;-5.90;99.90
14349;DHT22;7258;50.376;8.742;2022-12-16T01:27:25;-5.80;99.90
14349;DHT22;7258;50.376;8.742;2022-12-16T01:29:28;-5.90;99.90
14349;DHT22;7258;50.376;8.742;2022-12-16T01:31:31;-5.90;99.90
14349;DHT22;7258;50.376;8.742;2022-12-16T01:33:34;-6.00;99.90
14349;DHT22;7258;50.376;8.742;2022-12-16T01:35:37;-6.00;99.90
14349;DHT22;7258;50.376;8.742;2022-12-16T01:37:57;-6.10;99.90
14349;DHT22;7258;50.376;8.742;2022-12-16T01:39:59;-6.00;99.90
14349;DHT22;7258;50.376;8.742;2022-12-16T01:42:02;-6.00;99.90
14349;DHT22;7258;50.376;8.742;2022-12-16T01:44:18;-6.10;99.90
14349;DHT22;7258;50.376;8.742;2022-12-16T01:46:23;-6.00;99.90
14349;DHT22;7258;50.376;8.742;2022-12-16T01:48:33;-6.00;99.90
14349;DHT22;7258;50.376;8.742;2022-12-16T01:50:37;-6.00;99.90
14349;DHT22;7258;50.376;8.742;2022-12-16T01:52:44;-6.00;99.90
14349;DHT22;7258;50.376;8.742;2022-12-16T01:54:51;-6.00;99.90
14349;DHT22;7258;50.376;8.742;2022-12-16T01:56:59;-6.00;99.90
14349;DHT22;7258;50.376;8.742;2022-12-16T01:59:04;-6.00;99.90
14349;DHT22;7258;50.376;8.742;2022-12-16T02:01:08;-6.00;99.90
14349;DHT22;7258;50.376;8.742;2022-12-16T02:03:11;-6.00;99.90
14349;DHT22;7258;50.376;8.742;2022-12-16T02:05:15;-6.00;99.90
14349;DHT22;7258;50.376;8.742;2022-12-16T02:07:25;-6.00;99.90
14349;DHT22;7258;50.376;8.742;2022-12-16T02:09:27;-6.00;99.90
14349;DHT22;7258;50.376;8.742;2022-12-16T02:11:58;-6.00;99.90
14349;DHT22;7258;50.376;8.742;2022-12-16T02:14:36;-6.00;99.90
14349;DHT22;7258;50.376;8.742;2022-12-16T02:16:50;-6.00;99.90
14349;DHT22;7258;50.376;8.742;2022-12-16T02:19:01;-6.00;99.90
14349;DHT22;7258;50.376;8.742;2022-12-16T02:21:20;-6.00;99.90
14349;DHT22;7258;50.376;8.742;2022-12-16T02:23:51;-6.10;99.90
14349;DHT22;7258;50.376;8.742;2022-12-16T02:26:28;-6.10;99.90
14349;DHT22;7258;50.376;8.742;2022-12-16T02:28:47;-6.10;99.90
14349;DHT22;7258;50.376;8.742;2022-12-16T02:31:08;-6.20;99.90
14349;DHT22;7258;50.376;8.742;2022-12-16T02:33:29;-6.20;99.90
14349;DHT22;7258;50.376;8.742;2022-12-16T02:35:40;-6.10;99.90
14349;DHT22;7258;50.376;8.742;2022-12-16T02:37:51;-6.10;99.90
14349;DHT22;7258;50.376;8.742;2022-12-16T02:39:59;-6.10;99.90
14349;DHT22;7258;50.376;8.742;2022-12-16T02:42:08;-6.10;99.90
14349;DHT22;7258;50.376;8.742;2022-12-16T02:44:14;-6.10;99.90
14349;DHT22;7258;50.376;8.742;2022-12-16T02:46:21;-6.10;99.90
14349;DHT22;7258;50.376;8.742;2022-12-16T02:48:25;-6.10;99.90
14349;DHT22;7258;50.376;8.742;2022-12-16T02:50:32;-6.10;99.90
14349;DHT22;7258;50.376;8.742;2022-12-16T02:52:36;-6.20;99.90
14349;DHT22;7258;50.376;8.742;2022-12-16T02:54:39;-6.20;99.90
14349;DHT22;7258;50.376;8.742;2022-12-16T02:56:50;-6.20;99.90
14349;DHT22;7258;50.376;8.742;2022-12-16T02:59:06;-6.30;99.90
14349;DHT22;7258;50.376;8.742;2022-12-16T03:01:18;-6.30;99.90
14349;DHT22;7258;50.376;8.742;2022-12-16T03:03:27;-6.40;99.90
14349;DHT22;7258;50.376;8.742;2022-12-16T03:05:34;-6.40;99.90
14349;DHT22;7258;50.376;8.742;2022-12-16T03:07:39;-6.40;99.90
14349;DHT22;7258;50.376;8.742;2022-12-16T03:09:43;-6.40;99.90
14349;DHT22;7258;50.376;8.742;2022-12-16T03:11:48;-6.40;99.90
14349;DHT22;7258;50.376;8.742;2022-12-16T03:13:53;-6.50;99.90
14349;DHT22;7258;50.376;8.742;2022-12-16T03:15:57;-6.50;99.90
14349;DHT22;7258;50.376;8.742;2022-12-16T03:18:02;-6.50;99.90
14349;DHT22;7258;50.376;8.742;2022-12-16T03:20:11;-6.50;99.90
14349;DHT22;7258;50.376;8.742;2022-12-16T03:22:20;-6.50;99.90
14349;DHT22;7258;50.376;8.742;2022-12-16T03:24:25;-6.60;99.90
14349;DHT22;7258;50.376;8.742;2022-12-16T03:26:32;-6.60;99.90
14349;DHT22;7258;50.376;8.742;2022-12-16T03:28:42;-6.60;99.90
14349;DHT22;7258;50.376;8.742;2022-12-16T03:30:50;-6.60;99.90
14349;DHT22;7258;50.376;8.742;2022-12-16T03:32:59;-6.60;99.90
14349;DHT22;7258;50.376;8.742;2022-12-16T03:35:10;-6.60;99.90
14349;DHT22;7258;50.376;8.742;2022-12-16T03:37:15;-6.60;99.90
14349;DHT22;7258;50.376;8.742;2022-12-16T03:39:20;-6.60;99.90
14349;DHT22;7258;50.376;8.742;2022-12-16T03:41:25;-6.60;99.90
14349;DHT22;7258;50.376;8.742;2022-12-16T03:43:28;-6.60;99.90
14349;DHT22;7258;50.376;8.742;2022-12-16T03:45:36;-6.60;99.90
14349;DHT22;7258;50.376;8.742;2022-12-16T03:47:40;-6.60;99.90
14349;DHT22;7258;50.376;8.742;2022-12-16T03:49:42;-6.70;99.90
14349;DHT22;7258;50.376;8.742;2022-12-16T03:51:47;-6.70;99.90
14349;DHT22;7258;50.376;8.742;2022-12-16T03:53:50;-6.70;99.90
14349;DHT22;7258;50.376;8.742;2022-12-16T03:55:53;-6.80;99.90
14349;DHT22;7258;50.376;8.742;2022-12-16T03:57:56;-6.80;99.90
14349;DHT22;7258;50.376;8.742;2022-12-16T03:59:59;-6.80;99.90
14349;DHT22;7258;50.376;8.742;2022-12-16T04:02:02;-6.70;99.90
14349;DHT22;7258;50.376;8.742;2022-12-16T04:04:05;-6.70;99.90
14349;DHT22;7258;50.376;8.742;2022-12-16T04:06:08;-6.70;99.90
14349;DHT22;7258;50.376;8.742;2022-12-16T04:08:12;-6.70;99.90
14349;DHT22;7258;50.376;8.742;2022-12-16T04:10:15;-6.60;99.90
14349;DHT22;7258;50.376;8.742;2022-12-16T04:12:18;-6.60;99.90
14349;DHT22;7258;50.376;8.742;2022-12-16T04:14:39;-6.50;99.90
14349;DHT22;7258;50.376;8.742;2022-12-16T04:16:59;-6.50;99.90
14349;DHT22;7258;50.376;8.742;2022-12-16T04:19:22;-6.50;99.90
14349;DHT22;7258;50.376;8.742;2022-12-16T04:21:43;-6.50;99.90
14349;DHT22;7258;50.376;8.742;2022-12-16T04:24:07;-6.50;99.90
14349;DHT22;7258;50.376;8.742;2022-12-16T04:26:24;-6.50;99.90
14349;DHT22;7258;50.376;8.742;2022-12-16T04:28:27;-6.50;99.90
14349;DHT22;7258;50.376;8.742;2022-12-16T04:30:31;-6.50;99.90
14349;DHT22;7258;50.376;8.742;2022-12-16T04:32:36;-6.50;99.90
14349;DHT22;7258;50.376;8.742;2022-12-16T04:34:56;-6.60;99.90
14349;DHT22;7258;50.376;8.742;2022-12-16T04:37:13;-6.50;99.90
14349;DHT22;7258;50.376;8.742;2022-12-16T04:39:35;-6.40;99.90
14349;DHT22;7258;50.376;8.742;2022-12-16T04:41:55;-6.50;99.90
14349;DHT22;7258;50.376;8.742;2022-12-16T04:44:30;-6.50;99.90
14349;DHT22;7258;50.376;8.742;2022-12-16T04:46:51;-6.50;99.90
14349;DHT22;7258;50.376;8.742;2022-12-16T04:49:11;-6.50;99.90
14349;DHT22;7258;50.376;8.742;2022-12-16T04:51:32;-6.40;99.90
14349;DHT22;7258;50.376;8.742;2022-12-16T04:53:52;-6.40;99.90
14349;DHT22;7258;50.376;8.742;2022-12-16T04:56:14;-6.40;99.90
14349;DHT22;7258;50.376;8.742;2022-12-16T04:58:35;-6.40;99.90
14349;DHT22;7258;50.376;8.742;2022-12-16T05:00:55;-6.30;99.90
14349;DHT22;7258;50.376;8.742;2022-12-16T05:03:15;-6.30;99.90
14349;DHT22;7258;50.376;8.742;2022-12-16T05:05:36;-6.30;99.90
14349;DHT22;7258;50.376;8.742;2022-12-16T05:07:56;-6.30;99.90
14349;DHT22;7258;50.376;8.742;2022-12-16T05:10:16;-6.30;99.90
14349;DHT22;7258;50.376;8.742;2022-12-16T05:12:38;-6.30;99.90
14349;DHT22;7258;50.376;8.742;2022-12-16T05:14:59;-6.30;99.90
14349;DHT22;7258;50.376;8.742;2022-12-16T05:17:20;-6.30;99.90
14349;DHT22;7258;50.376;8.742;2022-12-16T05:19:40;-6.30;99.90
14349;DHT22;7258;50.376;8.742;2022-12-16T05:22:01;-6.30;99.90
14349;DHT22;7258;50.376;8.742;2022-12-16T05:24:21;-6.30;99.90
14349;DHT22;7258;50.376;8.742;2022-12-16T05:26:41;-6.30;99.90
14349;DHT22;7258;50.376;8.742;2022-12-16T05:29:03;-6.30;99.90
14349;DHT22;7258;50.376;8.742;2022-12-16T05:31:24;-6.40;99.90
14349;DHT22;7258;50.376;8.742;2022-12-16T05:33:44;-6.40;99.90
14349;DHT22;7258;50.376;8.742;2022-12-16T05:36:05;-6.40;99.90
14349;DHT22;7258;50.376;8.742;2022-12-16T05:38:25;-6.40;99.90
14349;DHT22;7258;50.376;8.742;2022-12-16T05:40:45;-6.50;99.90
14349;DHT22;7258;50.376;8.742;2022-12-16T05:43:06;-6.50;99.90
14349;DHT22;7258;50.376;8.742;2022-12-16T05:45:27;-6.50;99.90
14349;DHT22;7258;50.376;8.742;2022-12-16T05:47:48;-6.50;99.90
14349;DHT22;7258;50.376;8.742;2022-12-16T05:50:09;-6.60;99.90
14349;DHT22;7258;50.376;8.742;2022-12-16T05:52:29;-6.60;99.90
14349;DHT22;7258;50.376;8.742;2022-12-16T05:54:50;-6.60;99.90
14349;DHT22;7258;50.376;8.742;2022-12-16T05:57:10;-6.60;99.90
14349;DHT22;7258;50.376;8.742;2022-12-16T05:59:31;-6.60;99.90
14349;DHT22;7258;50.376;8.742;2022-12-16T06:01:53;-6.60;99.90
14349;DHT22;7258;50.376;8.742;2022-12-16T06:04:13;-6.50;99.90
14349;DHT22;7258;50.376;8.742;2022-12-16T06:06:33;-6.40;99.90
14349;DHT22;7258;50.376;8.742;2022-12-16T06:08:54;-6.40;99.90
14349;DHT22;7258;50.376;8.742;2022-12-16T06:11:15;-6.40;99.90
14349;DHT22;7258;50.376;8.742;2022-12-16T06:13:35;-6.40;99.90
14349;DHT22;7258;50.376;8.742;2022-12-16T06:15:56;-6.40;99.90
14349;DHT22;7258;50.376;8.742;2022-12-16T06:18:19;-6.40;99.90
14349;DHT22;7258;50.376;8.742;2022-12-16T06:20:39;-6.40;99.90
14349;DHT22;7258;50.376;8.742;2022-12-16T06:23:05;-6.40;99.90
14349;DHT22;7258;50.376;8.742;2022-12-16T06:25:26;-6.30;99.90
14349;DHT22;7258;50.376;8.742;2022-12-16T06:27:49;-6.20;99.90
14349;DHT22;7258;50.376;8.742;2022-12-16T06:30:10;-6.20;99.90
14349;DHT22;7258;50.376;8.742;2022-12-16T06:32:30;-6.20;99.90
14349;DHT22;7258;50.376;8.742;2022-12-16T06:34:52;-6.20;99.90
14349;DHT22;7258;50.376;8.742;2022-12-16T06:37:12;-6.20;99.90
14349;DHT22;7258;50.376;8.742;2022-12-16T06:39:30;-6.20;99.90
14349;DHT22;7258;50.376;8.742;2022-12-16T06:41:53;-6.20;99.90
14349;DHT22;7258;50.376;8.742;2022-12-16T06:44:14;-6.20;99.90
14349;DHT22;7258;50.376;8.742;2022-12-16T06:46:34;-6.20;99.90
14349;DHT22;7258;50.376;8.742;2022-12-16T06:48:54;-6.10;99.90
14349;DHT22;7258;50.376;8.742;2022-12-16T06:51:16;-6.10;99.90
14349;DHT22;7258;50.376;8.742;2022-12-16T06:53:37;-6.10;99.90
14349;DHT22;7258;50.376;8.742;2022-12-16T06:55:57;-6.00;99.90
14349;DHT22;7258;50.376;8.742;2022-12-16T06:58:18;-6.00;99.90
14349;DHT22;7258;50.376;8.742;2022-12-16T07:00:38;-6.00;99.90
14349;DHT22;7258;50.376;8.742;2022-12-16T07:03:07;-6.00;99.90
14349;DHT22;7258;50.376;8.742;2022-12-16T07:05:27;-6.00;99.90
14349;DHT22;7258;50.376;8.742;2022-12-16T07:07:49;-5.90;99.90
14349;DHT22;7258;50.376;8.742;2022-12-16T07:10:10;-5.90;99.90
14349;DHT22;7258;50.376;8.742;2022-12-16T07:12:31;-5.90;99.90
14349;DHT22;7258;50.376;8.742;2022-12-16T07:14:52;-5.90;99.90
14349;DHT22;7258;50.376;8.742;2022-12-16T07:17:14;-5.90;99.90
14349;DHT22;7258;50.376;8.742;2022-12-16T07:19:35;-5.90;99.90
14349;DHT22;7258;50.376;8.742;2022-12-16T07:21:56;-5.90;99.90
14349;DHT22;7258;50.376;8.742;2022-12-16T07:24:17;-5.90;99.90
14349;DHT22;7258;50.376;8.742;2022-12-16T07:26:38;-5.90;99.90
14349;DHT22;7258;50.376;8.742;2022-12-16T07:28:58;-5.90;99.90
14349;DHT22;7258;50.376;8.742;2022-12-16T07:31:19;-6.00;99.90
14349;DHT22;7258;50.376;8.742;2022-12-16T07:33:39;-6.00;99.90
14349;DHT22;7258;50.376;8.742;2022-12-16T07:36:00;-6.00;99.90
14349;DHT22;7258;50.376;8.742;2022-12-16T07:38:21;-6.00;99.90
14349;DHT22;7258;50.376;8.742;2022-12-16T07:40:43;-6.00;99.90
14349;DHT22;7258;50.376;8.742;2022-12-16T07:42:59;-6.00;99.90
14349;DHT22;7258;50.376;8.742;2022-12-16T07:45:20;-6.00;99.90
14349;DHT22;7258;50.376;8.742;2022-12-16T07:47:46;-6.00;99.90
14349;DHT22;7258;50.376;8.742;2022-12-16T07:50:10;-6.00;99.90
14349;DHT22;7258;50.376;8.742;2022-12-16T07:52:30;-5.90;99.90
14349;DHT22;7258;50.376;8.742;2022-12-16T07:55:06;-5.80;99.90
14349;DHT22;7258;50.376;8.742;2022-12-16T07:57:31;-5.80;99.90
14349;DHT22;7258;50.376;8.742;2022-12-16T07:59:51;-5.70;99.90
14349;DHT22;7258;50.376;8.742;2022-12-16T08:02:12;-5.70;99.90
14349;DHT22;7258;50.376;8.742;2022-12-16T08:04:29;-5.70;99.90
14349;DHT22;7258;50.376;8.742;2022-12-16T08:06:49;-5.60;99.90
14349;DHT22;7258;50.376;8.742;2022-12-16T08:09:10;-5.50;99.90
14349;DHT22;7258;50.376;8.742;2022-12-16T08:11:32;-5.50;99.90
14349;DHT22;7258;50.376;8.742;2022-12-16T08:13:54;-5.40;99.90
14349;DHT22;7258;50.376;8.742;2022-12-16T08:16:14;-5.30;99.90
14349;DHT22;7258;50.376;8.742;2022-12-16T08:18:35;-5.20;99.90
14349;DHT22;7258;50.376;8.742;2022-12-16T08:20:55;-5.10;99.90
14349;DHT22;7258;50.376;8.742;2022-12-16T08:23:24;-5.10;99.90
14349;DHT22;7258;50.376;8.742;2022-12-16T08:25:45;-5.00;99.90
14349;DHT22;7258;50.376;8.742;2022-12-16T08:28:05;-4.90;99.90
14349;DHT22;7258;50.376;8.742;2022-12-16T08:30:27;-4.80;99.90
14349;DHT22;7258;50.376;8.742;2022-12-16T08:32:48;-4.80;99.90
14349;DHT22;7258;50.376;8.742;2022-12-16T08:35:19;-4.70;99.90
14349;DHT22;7258;50.376;8.742;2022-12-16T08:37:36;-4.60;99.90
14349;DHT22;7258;50.376;8.742;2022-12-16T08:39:56;-4.60;99.90
14349;DHT22;7258;50.376;8.742;2022-12-16T08:42:36;-4.50;99.90
14349;DHT22;7258;50.376;8.742;2022-12-16T08:44:56;-4.40;99.90
14349;DHT22;7258;50.376;8.742;2022-12-16T08:47:18;-4.40;99.90
14349;DHT22;7258;50.376;8.742;2022-12-16T08:49:38;-4.30;99.90
14349;DHT22;7258;50.376;8.742;2022-12-16T08:52:03;-4.30;99.90
14349;DHT22;7258;50.376;8.742;2022-12-16T08:54:23;-4.20;99.90
14349;DHT22;7258;50.376;8.742;2022-12-16T08:56:44;-4.20;99.90
14349;DHT22;7258;50.376;8.742;2022-12-16T08:59:04;-4.10;99.90
14349;DHT22;7258;50.376;8.742;2022-12-16T09:01:24;-4.00;99.90
14349;DHT22;7258;50.376;8.742;2022-12-16T09:03:46;-4.00;99.90
14349;DHT22;7258;50.376;8.742;2022-12-16T09:06:07;-3.90;99.90
14349;DHT22;7258;50.376;8.742;2022-12-16T09:08:40;-3.80;99.90
14349;DHT22;7258;50.376;8.742;2022-12-16T09:11:01;-3.80;99.90
14349;DHT22;7258;50.376;8.742;2022-12-16T09:13:21;-3.90;99.90
14349;DHT22;7258;50.376;8.742;2022-12-16T09:15:42;-3.90;99.90
14349;DHT22;7258;50.376;8.742;2022-12-16T09:18:02;-3.90;99.90
14349;DHT22;7258;50.376;8.742;2022-12-16T09:20:24;-3.80;99.90
14349;DHT22;7258;50.376;8.742;2022-12-16T09:22:45;-3.80;99.90
14349;DHT22;7258;50.376;8.742;2022-12-16T09:25:06;-3.80;99.90
14349;DHT22;7258;50.376;8.742;2022-12-16T09:27:26;-3.80;99.90
14349;DHT22;7258;50.376;8.742;2022-12-16T09:29:47;-3.80;99.90
14349;DHT22;7258;50.376;8.742;2022-12-16T09:32:07;-3.70;99.90
14349;DHT22;7258;50.376;8.742;2022-12-16T09:34:27;-3.70;99.90
14349;DHT22;7258;50.376;8.742;2022-12-16T09:36:49;-3.70;99.90
14349;DHT22;7258;50.376;8.742;2022-12-16T09:39:10;-3.70;99.90
14349;DHT22;7258;50.376;8.742;2022-12-16T09:41:40;-3.70;99.90
14349;DHT22;7258;50.376;8.742;2022-12-16T09:44:08;-3.70;99.90
14349;DHT22;7258;50.376;8.742;2022-12-16T09:46:38;-3.70;99.90
14349;DHT22;7258;50.376;8.742;2022-12-16T09:49:14;-3.70;99.90
14349;DHT22;7258;50.376;8.742;2022-12-16T09:51:43;-3.60;99.90
14349;DHT22;7258;50.376;8.742;2022-12-16T09:54:14;-3.70;99.90
14349;DHT22;7258;50.376;8.742;2022-12-16T09:56:36;-3.60;99.90
14349;DHT22;7258;50.376;8.742;2022-12-16T09:58:59;-3.60;99.90
14349;DHT22;7258;50.376;8.742;2022-12-16T10:01:21;-3.50;99.90
14349;DHT22;7258;50.376;8.742;2022-12-16T10:03:42;-3.50;99.90
14349;DHT22;7258;50.376;8.742;2022-12-16T10:06:07;-3.50;99.90
14349;DHT22;7258;50.376;8.742;2022-12-16T10:08:34;-3.50;99.90
14349;DHT22;7258;50.376;8.742;2022-12-16T10:11:03;-3.50;99.90
14349;DHT22;7258;50.376;8.742;2022-12-16T10:13:38;-3.50;99.90
14349;DHT22;7258;50.376;8.742;2022-12-16T10:16:10;-3.40;99.90
14349;DHT22;7258;50.376;8.742;2022-12-16T10:18:46;-3.40;99.90
14349;DHT22;7258;50.376;8.742;2022-12-16T10:21:12;-3.40;99.90
14349;DHT22;7258;50.376;8.742;2022-12-16T10:23:38;-3.40;99.90
14349;DHT22;7258;50.376;8.742;2022-12-16T10:26:07;-3.40;99.90
14349;DHT22;7258;50.376;8.742;2022-12-16T10:28:43;-3.30;99.90
14349;DHT22;7258;50.376;8.742;2022-12-16T10:31:12;-3.20;99.90
14349;DHT22;7258;50.376;8.742;2022-12-16T10:33:33;-3.20;99.90
14349;DHT22;7258;50.376;8.742;2022-12-16T10:35:55;-3.10;99.90
14349;DHT22;7258;50.376;8.742;2022-12-16T10:38:20;-3.20;99.90
14349;DHT22;7258;50.376;8.742;2022-12-16T10:40:41;-3.10;99.90
14349;DHT22;7258;50.376;8.742;2022-12-16T10:43:06;-3.10;99.90
14349;DHT22;7258;50.376;8.742;2022-12-16T10:45:34;-3.10;99.90
14349;DHT22;7258;50.376;8.742;2022-12-16T10:47:57;-3.00;99.90
14349;DHT22;7258;50.376;8.742;2022-12-16T10:50:17;-2.90;99.90
14349;DHT22;7258;50.376;8.742;2022-12-16T10:52:44;-2.90;99.90
14349;DHT22;7258;50.376;8.742;2022-12-16T10:55:18;-2.90;99.90
14349;DHT22;7258;50.376;8.742;2022-12-16T10:57:51;-2.90;99.90
14349;DHT22;7258;50.376;8.742;2022-12-16T11:00:19;-2.90;99.90
14349;DHT22;7258;50.376;8.742;2022-12-16T11:02:42;-2.80;99.90
14349;DHT22;7258;50.376;8.742;2022-12-16T11:05:31;-2.80;99.90
14349;DHT22;7258;50.376;8.742;2022-12-16T11:07:53;-2.80;99.90
14349;DHT22;7258;50.376;8.742;2022-12-16T11:10:32;-2.70;99.90
14349;DHT22;7258;50.376;8.742;2022-12-16T11:12:53;-2.70;99.90
14349;DHT22;7258;50.376;8.742;2022-12-16T11:15:23;-2.70;99.90
14349;DHT22;7258;50.376;8.742;2022-12-16T11:18:00;-2.60;99.90
14349;DHT22;7258;50.376;8.742;2022-12-16T11:20:23;-2.60;99.90
14349;DHT22;7258;50.376;8.742;2022-12-16T11:22:44;-2.50;99.90
14349;DHT22;7258;50.376;8.742;2022-12-16T11:25:08;-2.50;99.90
14349;DHT22;7258;50.376;8.742;2022-12-16T11:27:32;-2.40;99.90
14349;DHT22;7258;50.376;8.742;2022-12-16T11:29:54;-2.40;99.90
14349;DHT22;7258;50.376;8.742;2022-12-16T11:32:19;-2.30;99.90
14349;DHT22;7258;50.376;8.742;2022-12-16T11:34:41;-2.30;99.90
14349;DHT22;7258;50.376;8.742;2022-12-16T11:37:02;-2.20;99.90
14349;DHT22;7258;50.376;8.742;2022-12-16T11:39:26;-2.20;99.90
14349;DHT22;7258;50.376;8.742;2022-12-16T11:41:50;-2.20;99.90
14349;DHT22;7258;50.376;8.742;2022-12-16T11:44:16;-2.20;99.90
14349;DHT22;7258;50.376;8.742;2022-12-16T11:46:37;-2.20;99.90
14349;DHT22;7258;50.376;8.742;2022-12-16T11:49:01;-2.20;99.90
14349;DHT22;7258;50.376;8.742;2022-12-16T11:51:28;-2.10;99.90
14349;DHT22;7258;50.376;8.742;2022-12-16T11:53:53;-2.10;99.90
14349;DHT22;7258;50.376;8.742;2022-12-16T11:56:18;-2.00;99.90
14349;DHT22;7258;50.376;8.742;2022-12-16T11:58:43;-1.90;99.90
14349;DHT22;7258;50.376;8.742;2022-12-16T12:01:11;-1.90;99.90
14349;DHT22;7258;50.376;8.742;2022-12-16T12:03:39;-1.80;99.90
14349;DHT22;7258;50.376;8.742;2022-12-16T12:06:08;-1.70;99.90
14349;DHT22;7258;50.376;8.742;2022-12-16T12:08:37;-1.60;99.90
14349;DHT22;7258;50.376;8.742;2022-12-16T12:11:03;-1.60;99.90
14349;DHT22;7258;50.376;8.742;2022-12-16T12:13:38;-1.50;99.90
14349;DHT22;7258;50.376;8.742;2022-12-16T12:16:06;-1.50;99.90
14349;DHT22;7258;50.376;8.742;2022-12-16T12:18:39;-1.40;99.90
14349;DHT22;7258;50.376;8.742;2022-12-16T12:21:07;-1.40;99.90
14349;DHT22;7258;50.376;8.742;2022-12-16T12:23:42;-1.30;99.90
14349;DHT22;7258;50.376;8.742;2022-12-16T12:26:10;-1.30;99.90
14349;DHT22;7258;50.376;8.742;2022-12-16T12:28:38;-1.30;99.90
14349;DHT22;7258;50.376;8.742;2022-12-16T12:31:11;-1.20;99.90
14349;DHT22;7258;50.376;8.742;2022-12-16T12:33:39;-1.20;99.90
14349;DHT22;7258;50.376;8.742;2022-12-16T12:36:06;-1.20;99.90
14349;DHT22;7258;50.376;8.742;2022-12-16T12:38:39;-1.20;99.90
14349;DHT22;7258;50.376;8.742;2022-12-16T12:41:11;-1.20;99.90
14349;DHT22;7258;50.376;8.742;2022-12-16T12:43:42;-1.20;99.90
14349;DHT22;7258;50.376;8.742;2022-12-16T12:46:07;-1.20;99.90
14349;DHT22;7258;50.376;8.742;2022-12-16T12:48:37;-1.20;99.90
14349;DHT22;7258;50.376;8.742;2022-12-16T12:51:06;-1.20;99.90
14349;DHT22;7258;50.376;8.742;2022-12-16T12:53:37;-1.20;99.90
14349;DHT22;7258;50.376;8.742;2022-12-16T12:56:07;-1.20;99.90
14349;DHT22;7258;50.376;8.742;2022-12-16T12:58:31;-1.20;99.90
14349;DHT22;7258;50.376;8.742;2022-12-16T13:00:54;-1.20;99.90
14349;DHT22;7258;50.376;8.742;2022-12-16T13:03:23;-1.10;99.90
14349;DHT22;7258;50.376;8.742;2022-12-16T13:05:47;-1.10;99.90
14349;DHT22;7258;50.376;8.742;2022-12-16T13:08:30;-1.10;99.90
14349;DHT22;7258;50.376;8.742;2022-12-16T13:11:11;-1.10;99.90
14349;DHT22;7258;50.376;8.742;2022-12-16T13:13:36;-1.10;99.90
14349;DHT22;7258;50.376;8.742;2022-12-16T13:15:56;-1.10;99.90
14349;DHT22;7258;50.376;8.742;2022-12-16T13:18:27;-1.10;99.90
14349;DHT22;7258;50.376;8.742;2022-12-16T13:20:48;-1.10;99.90
14349;DHT22;7258;50.376;8.742;2022-12-16T13:23:27;-1.10;99.90
14349;DHT22;7258;50.376;8.742;2022-12-16T13:25:51;-1.10;99.90
14349;DHT22;7258;50.376;8.742;2022-12-16T13:28:20;-1.10;99.90
14349;DHT22;7258;50.376;8.742;2022-12-16T13:30:57;-1.10;99.90
14349;DHT22;7258;50.376;8.742;2022-12-16T13:33:28;-1.10;99.90
14349;DHT22;7258;50.376;8.742;2022-12-16T13:35:52;-1.10;99.90
14349;DHT22;7258;50.376;8.742;2022-12-16T13:38:19;-1.20;99.90
14349;DHT22;7258;50.376;8.742;2022-12-16T13:40:49;-1.20;99.90
14349;DHT22;7258;50.376;8.742;2022-12-16T13:43:41;-1.20;99.90
14349;DHT22;7258;50.376;8.742;2022-12-16T13:46:15;-1.20;99.90
14349;DHT22;7258;50.376;8.742;2022-12-16T13:48:37;-1.20;99.90
14349;DHT22;7258;50.376;8.742;2022-12-16T13:50:58;-1.20;99.90
14349;DHT22;7258;50.376;8.742;2022-12-16T13:53:37;-1.30;99.90
14349;DHT22;7258;50.376;8.742;2022-12-16T13:55:59;-1.30;99.90
14349;DHT22;7258;50.376;8.742;2022-12-16T13:58:29;-1.40;99.90
14349;DHT22;7258;50.376;8.742;2022-12-16T14:00:56;-1.40;99.90
14349;DHT22;7258;50.376;8.742;2022-12-16T14:03:21;-1.50;99.90
14349;DHT22;7258;50.376;8.742;2022-12-16T14:05:46;-1.50;99.90
14349;DHT22;7258;50.376;8.742;2022-12-16T14:08:11;-1.60;99.90
14349;DHT22;7258;50.376;8.742;2022-12-16T14:10:39;-1.70;99.90
14349;DHT22;7258;50.376;8.742;2022-12-16T14:13:02;-1.70;99.90
14349;DHT22;7258;50.376;8.742;2022-12-16T14:15:30;-1.80;99.90
14349;DHT22;7258;50.376;8.742;2022-12-16T14:17:57;-1.80;99.90
14349;DHT22;7258;50.376;8.742;2022-12-16T14:20:22;-1.90;99.90
14349;DHT22;7258;50.376;8.742;2022-12-16T14:22:51;-2.00;99.90
14349;DHT22;7258;50.376;8.742;2022-12-16T14:25:34;-2.00;99.90
14349;DHT22;7258;50.376;8.742;2022-12-16T14:27:56;-2.00;99.90
14349;DHT22;7258;50.376;8.742;2022-12-16T14:30:18;-2.10;99.90
14349;DHT22;7258;50.376;8.742;2022-12-16T14:32:40;-2.10;99.90
14349;DHT22;7258;50.376;8.742;2022-12-16T14:35:01;-2.20;99.90
14349;DHT22;7258;50.376;8.742;2022-12-16T14:37:32;-2.20;99.90
14349;DHT22;7258;50.376;8.742;2022-12-16T14:39:53;-2.20;99.90
14349;DHT22;7258;50.376;8.742;2022-12-16T14:42:18;-2.30;99.90
14349;DHT22;7258;50.376;8.742;2022-12-16T14:44:39;-2.30;99.90
14349;DHT22;7258;50.376;8.742;2022-12-16T14:47:00;-2.40;99.90
14349;DHT22;7258;50.376;8.742;2022-12-16T14:49:24;-2.40;99.90